SXS3CL LTAI-EDDH
Flight info
| Callsign | SXS3CL |
|---|---|
| Flight time | 3h 36m |
| Altitude | 35000 |
| Route | EKNUD UQ26 BKZ DCT IBLAX DCT RASUB DCT BKS DCT TURIS DCT ODLIV DCT HDO DCT OSKAN M748 ESIKA DCT SOGMA M748 RARUP RARUP6A |
| Aircraft | B738/M-SDE2E3FGHIRWXY/LB1 |
Departure
| Time | 2026-02-18 02:57 |
|---|---|
| Airport | Antalya International Airport (LTAI) |
Arrival
| Time | 2026-02-18 06:34 |
|---|---|
| Airport | Hamburg Helmut Schmidt Airport (EDDH) |
| Time | Latitude | Longitude | Altitude | Speed | Heading |
|---|---|---|---|---|---|
| 2026-02-18 02:34 | 36.91534 | 30.79993 | 190 ft | 0 kts | 97° |
| 2026-02-18 02:47 | 36.91535 | 30.79985 | 206 ft | 2 kts | 98° |
| 2026-02-18 02:48 | 36.91539 | 30.79961 | 202 ft | 3 kts | 108° |
| 2026-02-18 02:48 | 36.91546 | 30.79939 | 197 ft | 3 kts | 125° |
| 2026-02-18 02:48 | 36.91559 | 30.79922 | 205 ft | 3 kts | 159° |
| 2026-02-18 02:48 | 36.91570 | 30.79919 | 199 ft | 1 kts | 186° |
| 2026-02-18 02:53 | 36.91559 | 30.79918 | 198 ft | 5 kts | 177° |
| 2026-02-18 02:53 | 36.91522 | 30.79917 | 194 ft | 5 kts | 208° |
| 2026-02-18 02:53 | 36.91512 | 30.79873 | 190 ft | 5 kts | 268° |
| 2026-02-18 02:53 | 36.91515 | 30.79825 | 190 ft | 5 kts | 276° |
| 2026-02-18 02:54 | 36.91519 | 30.79779 | 189 ft | 5 kts | 276° |
| 2026-02-18 02:54 | 36.91522 | 30.79732 | 199 ft | 5 kts | 277° |
| 2026-02-18 02:54 | 36.91525 | 30.79701 | 188 ft | 6 kts | 275° |
| 2026-02-18 02:54 | 36.91530 | 30.79650 | 187 ft | 6 kts | 277° |
| 2026-02-18 02:55 | 36.91534 | 30.79607 | 184 ft | 0 kts | 277° |
| 2026-02-18 02:55 | 36.91534 | 30.79605 | 184 ft | 1 kts | 277° |
| 2026-02-18 02:56 | 36.91537 | 30.79577 | 184 ft | 8 kts | 277° |
| 2026-02-18 02:56 | 36.91524 | 30.79490 | 182 ft | 12 kts | 225° |
| 2026-02-18 02:56 | 36.91440 | 30.79460 | 181 ft | 25 kts | 188° |
| 2026-02-18 02:56 | 36.90990 | 30.79398 | 182 ft | 106 kts | 186° |
| 2026-02-18 02:57 | 36.89995 | 30.79265 | 186 ft | 177 kts | 192° |
| 2026-02-18 02:57 | 36.88720 | 30.79104 | 819 ft | 188 kts | 184° |
| 2026-02-18 02:57 | 36.87466 | 30.78800 | 1849 ft | 179 kts | 219° |
| 2026-02-18 02:57 | 36.86616 | 30.77625 | 2893 ft | 185 kts | 223° |
| 2026-02-18 02:58 | 36.85404 | 30.77011 | 3505 ft | 199 kts | 194° |
| 2026-02-18 02:58 | 36.84103 | 30.76622 | 4120 ft | 202 kts | 203° |
| 2026-02-18 02:58 | 36.82774 | 30.76094 | 4798 ft | 206 kts | 205° |
| 2026-02-18 02:58 | 36.81406 | 30.75505 | 5551 ft | 208 kts | 206° |
| 2026-02-18 02:59 | 36.78695 | 30.74260 | 7014 ft | 208 kts | 213° |
| 2026-02-18 02:59 | 36.77725 | 30.73019 | 7698 ft | 204 kts | 244° |
| 2026-02-18 02:59 | 36.77344 | 30.71234 | 7981 ft | 225 kts | 263° |
| 2026-02-18 03:00 | 36.77436 | 30.69251 | 8004 ft | 232 kts | 272° |
| 2026-02-18 03:00 | 36.77662 | 30.67261 | 7983 ft | 249 kts | 281° |
| 2026-02-18 03:00 | 36.78468 | 30.65425 | 8012 ft | 269 kts | 306° |
| 2026-02-18 03:00 | 36.80063 | 30.64049 | 7988 ft | 287 kts | 335° |
| 2026-02-18 03:01 | 36.82039 | 30.63793 | 8021 ft | 297 kts | 358° |
| 2026-02-18 03:01 | 36.84138 | 30.64062 | 8006 ft | 298 kts | 359° |
| 2026-02-18 03:01 | 36.86198 | 30.64202 | 7993 ft | 295 kts | 355° |
| 2026-02-18 03:01 | 36.88146 | 30.64244 | 7995 ft | 295 kts | 354° |
| 2026-02-18 03:02 | 36.90255 | 30.64271 | 8133 ft | 299 kts | 354° |
| 2026-02-18 03:02 | 36.92302 | 30.64299 | 8879 ft | 305 kts | 355° |
| 2026-02-18 03:02 | 36.94402 | 30.64338 | 10030 ft | 299 kts | 355° |
| 2026-02-18 03:02 | 36.96461 | 30.64381 | 10673 ft | 310 kts | 355° |
| 2026-02-18 03:03 | 37.00833 | 30.64483 | 12195 ft | 323 kts | 356° |
| 2026-02-18 03:03 | 37.03100 | 30.64543 | 13007 ft | 329 kts | 356° |
| 2026-02-18 03:03 | 37.05443 | 30.64607 | 13756 ft | 335 kts | 356° |
| 2026-02-18 03:04 | 37.07767 | 30.64672 | 14500 ft | 339 kts | 356° |
| 2026-02-18 03:04 | 37.10127 | 30.64740 | 15267 ft | 343 kts | 356° |
| 2026-02-18 03:04 | 37.12463 | 30.64807 | 15999 ft | 347 kts | 356° |
| 2026-02-18 03:04 | 37.14894 | 30.64877 | 16774 ft | 352 kts | 357° |
| 2026-02-18 03:05 | 37.17352 | 30.64947 | 17516 ft | 357 kts | 357° |
| 2026-02-18 03:05 | 37.22391 | 30.65093 | 18853 ft | 366 kts | 358° |
| 2026-02-18 03:05 | 37.24887 | 30.65164 | 19513 ft | 369 kts | 358° |
| 2026-02-18 03:06 | 37.27383 | 30.65237 | 20163 ft | 373 kts | 358° |
| 2026-02-18 03:06 | 37.30020 | 30.65313 | 20824 ft | 377 kts | 358° |
| 2026-02-18 03:06 | 37.32650 | 30.65389 | 21448 ft | 381 kts | 358° |
| 2026-02-18 03:06 | 37.35312 | 30.65466 | 22022 ft | 388 kts | 358° |
| 2026-02-18 03:07 | 37.40795 | 30.65623 | 23222 ft | 397 kts | 358° |
| 2026-02-18 03:07 | 37.43564 | 30.65704 | 23703 ft | 400 kts | 358° |
| 2026-02-18 03:07 | 37.46360 | 30.65785 | 24204 ft | 404 kts | 358° |
| 2026-02-18 03:08 | 37.49199 | 30.65866 | 24689 ft | 409 kts | 357° |
| 2026-02-18 03:08 | 37.52058 | 30.65948 | 25153 ft | 413 kts | 357° |
| 2026-02-18 03:08 | 37.54932 | 30.66031 | 25670 ft | 417 kts | 357° |
| 2026-02-18 03:08 | 37.57871 | 30.66115 | 26039 ft | 424 kts | 357° |
| 2026-02-18 03:09 | 37.60832 | 30.66201 | 26490 ft | 428 kts | 357° |
| 2026-02-18 03:09 | 37.63825 | 30.66289 | 27013 ft | 430 kts | 356° |
| 2026-02-18 03:09 | 37.66843 | 30.66377 | 27496 ft | 435 kts | 356° |
| 2026-02-18 03:09 | 37.69758 | 30.66462 | 27973 ft | 437 kts | 356° |
| 2026-02-18 03:10 | 37.72806 | 30.66551 | 28471 ft | 439 kts | 355° |
| 2026-02-18 03:10 | 37.75847 | 30.66640 | 28961 ft | 443 kts | 356° |
| 2026-02-18 03:10 | 37.78985 | 30.66731 | 29333 ft | 448 kts | 356° |
| 2026-02-18 03:11 | 37.85281 | 30.66917 | 30102 ft | 454 kts | 356° |
| 2026-02-18 03:11 | 37.88450 | 30.67341 | 30454 ft | 462 kts | 6° |
| 2026-02-18 03:11 | 37.91552 | 30.68381 | 30809 ft | 469 kts | 17° |
| 2026-02-18 03:11 | 37.94528 | 30.70002 | 31184 ft | 474 kts | 22° |
| 2026-02-18 03:12 | 37.97511 | 30.71823 | 31590 ft | 475 kts | 23° |
| 2026-02-18 03:12 | 38.00484 | 30.73663 | 31904 ft | 478 kts | 22° |
| 2026-02-18 03:12 | 38.03487 | 30.75476 | 32163 ft | 481 kts | 22° |
| 2026-02-18 03:12 | 38.06529 | 30.77268 | 32417 ft | 484 kts | 21° |
| 2026-02-18 03:13 | 38.09656 | 30.78962 | 32628 ft | 485 kts | 14° |
| 2026-02-18 03:13 | 38.12908 | 30.79989 | 32913 ft | 480 kts | 3° |
| 2026-02-18 03:13 | 38.16177 | 30.80375 | 33234 ft | 474 kts | 354° |
| 2026-02-18 03:13 | 38.19465 | 30.80115 | 33515 ft | 467 kts | 345° |
| 2026-02-18 03:14 | 38.22652 | 30.79573 | 33755 ft | 468 kts | 344° |
| 2026-02-18 03:14 | 38.25869 | 30.78985 | 33977 ft | 470 kts | 344° |
| 2026-02-18 03:14 | 38.29112 | 30.78394 | 34223 ft | 471 kts | 345° |
| 2026-02-18 03:15 | 38.35645 | 30.77251 | 34510 ft | 479 kts | 346° |
| 2026-02-18 03:15 | 38.38987 | 30.76686 | 34526 ft | 485 kts | 346° |
| 2026-02-18 03:15 | 38.45750 | 30.75565 | 34528 ft | 496 kts | 346° |
| 2026-02-18 03:16 | 38.52626 | 30.74430 | 34512 ft | 503 kts | 346° |
| 2026-02-18 03:16 | 38.59569 | 30.73283 | 34515 ft | 503 kts | 346° |
| 2026-02-18 03:17 | 38.66523 | 30.72126 | 34499 ft | 503 kts | 346° |
| 2026-02-18 03:17 | 38.73348 | 30.70986 | 34505 ft | 503 kts | 346° |
| 2026-02-18 03:18 | 38.80231 | 30.69833 | 34509 ft | 503 kts | 347° |
| 2026-02-18 03:19 | 38.89994 | 30.66106 | 34507 ft | 482 kts | 326° |
| 2026-02-18 03:19 | 38.95939 | 30.62132 | 34494 ft | 482 kts | 325° |
| 2026-02-18 03:20 | 39.01871 | 30.58176 | 34495 ft | 483 kts | 326° |
| 2026-02-18 03:20 | 39.06885 | 30.54882 | 34492 ft | 483 kts | 326° |
| 2026-02-18 03:21 | 39.12890 | 30.50959 | 34489 ft | 483 kts | 326° |
| 2026-02-18 03:21 | 39.18855 | 30.47058 | 34491 ft | 483 kts | 326° |
| 2026-02-18 03:22 | 39.24849 | 30.43125 | 34492 ft | 484 kts | 327° |
| 2026-02-18 03:22 | 39.30850 | 30.39179 | 34510 ft | 484 kts | 327° |
| 2026-02-18 03:23 | 39.39792 | 30.33285 | 34480 ft | 484 kts | 327° |
| 2026-02-18 03:23 | 39.45762 | 30.29341 | 34474 ft | 484 kts | 327° |
| 2026-02-18 03:24 | 39.51788 | 30.25467 | 34462 ft | 486 kts | 330° |
| 2026-02-18 03:24 | 39.58067 | 30.22099 | 34458 ft | 488 kts | 333° |
| 2026-02-18 03:25 | 39.64387 | 30.18845 | 34455 ft | 488 kts | 333° |
| 2026-02-18 03:25 | 39.70621 | 30.15557 | 34477 ft | 488 kts | 332° |
| 2026-02-18 03:26 | 39.76876 | 30.12204 | 34460 ft | 488 kts | 332° |
| 2026-02-18 03:27 | 39.86329 | 30.07120 | 34463 ft | 488 kts | 333° |
| 2026-02-18 03:27 | 39.92611 | 30.03737 | 34450 ft | 488 kts | 333° |
| 2026-02-18 03:28 | 39.98889 | 30.00350 | 34432 ft | 488 kts | 332° |
| 2026-02-18 03:28 | 40.04799 | 29.97152 | 34436 ft | 488 kts | 332° |
| 2026-02-18 03:29 | 40.11010 | 29.93783 | 34410 ft | 487 kts | 332° |
| 2026-02-18 03:29 | 40.17264 | 29.90384 | 34418 ft | 486 kts | 333° |
| 2026-02-18 03:30 | 40.26615 | 29.85288 | 34410 ft | 485 kts | 333° |
| 2026-02-18 03:31 | 40.35967 | 29.80178 | 34403 ft | 485 kts | 333° |
| 2026-02-18 03:31 | 40.42171 | 29.76778 | 34401 ft | 484 kts | 333° |
| 2026-02-18 03:32 | 40.48296 | 29.73415 | 34405 ft | 484 kts | 333° |
| 2026-02-18 03:32 | 40.54511 | 29.69995 | 34402 ft | 484 kts | 333° |
| 2026-02-18 03:33 | 40.60711 | 29.66578 | 34413 ft | 483 kts | 333° |
| 2026-02-18 03:33 | 40.66789 | 29.62865 | 34404 ft | 478 kts | 324° |
| 2026-02-18 03:34 | 40.72015 | 29.57603 | 34405 ft | 472 kts | 316° |
| 2026-02-18 03:34 | 40.77098 | 29.52113 | 34401 ft | 473 kts | 317° |
| 2026-02-18 03:35 | 40.84807 | 29.43914 | 34389 ft | 474 kts | 317° |
| 2026-02-18 03:35 | 40.89945 | 29.38487 | 34400 ft | 474 kts | 317° |
| 2026-02-18 03:36 | 40.95118 | 29.33012 | 34389 ft | 475 kts | 317° |
| 2026-02-18 03:36 | 41.00183 | 29.27637 | 34385 ft | 475 kts | 317° |
| 2026-02-18 03:37 | 41.05330 | 29.22161 | 34396 ft | 475 kts | 317° |
| 2026-02-18 03:37 | 41.10483 | 29.16670 | 34389 ft | 476 kts | 317° |
| 2026-02-18 03:38 | 41.15602 | 29.11300 | 34382 ft | 477 kts | 319° |
| 2026-02-18 03:39 | 41.23510 | 29.03574 | 34369 ft | 477 kts | 320° |
| 2026-02-18 03:39 | 41.28463 | 28.98732 | 34373 ft | 477 kts | 320° |
| 2026-02-18 03:40 | 41.33788 | 28.93468 | 34362 ft | 476 kts | 320° |
| 2026-02-18 03:40 | 41.39063 | 28.88226 | 34364 ft | 475 kts | 320° |
| 2026-02-18 03:41 | 41.44316 | 28.82992 | 34378 ft | 475 kts | 320° |
| 2026-02-18 03:41 | 41.49627 | 28.77692 | 34383 ft | 474 kts | 320° |
| 2026-02-18 03:42 | 41.54844 | 28.72476 | 34387 ft | 474 kts | 320° |
| 2026-02-18 03:42 | 41.60101 | 28.67210 | 34395 ft | 473 kts | 320° |
| 2026-02-18 03:43 | 41.67964 | 28.59311 | 34387 ft | 472 kts | 319° |
| 2026-02-18 03:43 | 41.73213 | 28.54024 | 34398 ft | 472 kts | 319° |
| 2026-02-18 03:44 | 41.78415 | 28.48774 | 34408 ft | 473 kts | 319° |
| 2026-02-18 03:44 | 41.83677 | 28.43451 | 34414 ft | 473 kts | 320° |
| 2026-02-18 03:45 | 41.88936 | 28.38121 | 34402 ft | 473 kts | 320° |
| 2026-02-18 03:45 | 41.94139 | 28.32839 | 34401 ft | 472 kts | 320° |
| 2026-02-18 03:46 | 41.99320 | 28.27403 | 34397 ft | 469 kts | 314° |
| 2026-02-18 03:47 | 42.06131 | 28.18095 | 34414 ft | 468 kts | 310° |
| 2026-02-18 03:47 | 42.10598 | 28.11805 | 34413 ft | 468 kts | 311° |
| 2026-02-18 03:48 | 42.15153 | 28.05473 | 34431 ft | 468 kts | 311° |
| 2026-02-18 03:48 | 42.19482 | 27.99494 | 34422 ft | 469 kts | 311° |
| 2026-02-18 03:49 | 42.23997 | 27.93257 | 34419 ft | 469 kts | 311° |
| 2026-02-18 03:49 | 42.28506 | 27.87014 | 34443 ft | 469 kts | 311° |
| 2026-02-18 03:50 | 42.33005 | 27.80768 | 34452 ft | 469 kts | 312° |
| 2026-02-18 03:50 | 42.37551 | 27.74442 | 34451 ft | 469 kts | 311° |
| 2026-02-18 03:51 | 42.44344 | 27.64918 | 34465 ft | 469 kts | 311° |
| 2026-02-18 03:52 | 42.51135 | 27.55437 | 34478 ft | 469 kts | 311° |
| 2026-02-18 03:52 | 42.55667 | 27.49091 | 34494 ft | 469 kts | 311° |
| 2026-02-18 03:53 | 42.60198 | 27.42718 | 34524 ft | 470 kts | 311° |
| 2026-02-18 03:53 | 42.64719 | 27.36340 | 34524 ft | 472 kts | 311° |
| 2026-02-18 03:54 | 42.69273 | 27.29904 | 34522 ft | 473 kts | 311° |
| 2026-02-18 03:54 | 42.73836 | 27.23439 | 34509 ft | 473 kts | 311° |
| 2026-02-18 03:55 | 42.80647 | 27.13750 | 34529 ft | 472 kts | 312° |
| 2026-02-18 03:55 | 42.85179 | 27.07296 | 34531 ft | 470 kts | 312° |
| 2026-02-18 03:56 | 42.89700 | 27.00849 | 34539 ft | 470 kts | 312° |
| 2026-02-18 03:56 | 42.93949 | 26.94773 | 34564 ft | 469 kts | 312° |
| 2026-02-18 03:57 | 42.98437 | 26.88337 | 34595 ft | 469 kts | 312° |
| 2026-02-18 03:57 | 43.02912 | 26.81905 | 34589 ft | 468 kts | 312° |
| 2026-02-18 03:58 | 43.07350 | 26.75510 | 34610 ft | 468 kts | 312° |
| 2026-02-18 03:59 | 43.14102 | 26.65757 | 34644 ft | 467 kts | 311° |
| 2026-02-18 03:59 | 43.18540 | 26.59327 | 34657 ft | 467 kts | 311° |
| 2026-02-18 04:00 | 43.22988 | 26.52867 | 34653 ft | 467 kts | 311° |
| 2026-02-18 04:00 | 43.27405 | 26.46440 | 34673 ft | 468 kts | 311° |
| 2026-02-18 04:01 | 43.31891 | 26.39896 | 34696 ft | 467 kts | 311° |
| 2026-02-18 04:01 | 43.36306 | 26.33437 | 34682 ft | 467 kts | 311° |
| 2026-02-18 04:02 | 43.40756 | 26.26915 | 34695 ft | 466 kts | 311° |
| 2026-02-18 04:02 | 43.45147 | 26.20465 | 34722 ft | 465 kts | 311° |
| 2026-02-18 04:03 | 43.51752 | 26.10737 | 34708 ft | 463 kts | 311° |
| 2026-02-18 04:03 | 43.56153 | 26.04235 | 34706 ft | 462 kts | 311° |
| 2026-02-18 04:04 | 43.60240 | 25.98184 | 34716 ft | 461 kts | 311° |
| 2026-02-18 04:04 | 43.64605 | 25.91707 | 34721 ft | 461 kts | 311° |
| 2026-02-18 04:05 | 43.68976 | 25.85205 | 34719 ft | 460 kts | 311° |
| 2026-02-18 04:05 | 43.73297 | 25.78764 | 34718 ft | 460 kts | 311° |
| 2026-02-18 04:06 | 43.76922 | 25.73349 | 34721 ft | 460 kts | 311° |
| 2026-02-18 04:07 | 43.84141 | 25.62533 | 34716 ft | 460 kts | 311° |
| 2026-02-18 04:07 | 43.87747 | 25.57115 | 34698 ft | 460 kts | 311° |
| 2026-02-18 04:08 | 43.92075 | 25.50598 | 34692 ft | 460 kts | 311° |
| 2026-02-18 04:08 | 43.96399 | 25.44073 | 34697 ft | 459 kts | 311° |
| 2026-02-18 04:09 | 44.00730 | 25.37642 | 34689 ft | 458 kts | 313° |
| 2026-02-18 04:09 | 44.05188 | 25.31312 | 34691 ft | 458 kts | 313° |
| 2026-02-18 04:10 | 44.09638 | 25.25006 | 34695 ft | 457 kts | 313° |
| 2026-02-18 04:10 | 44.14069 | 25.18677 | 34694 ft | 457 kts | 313° |
| 2026-02-18 04:11 | 44.20708 | 25.09129 | 34696 ft | 456 kts | 313° |
| 2026-02-18 04:11 | 44.25096 | 25.02795 | 34698 ft | 455 kts | 312° |
| 2026-02-18 04:12 | 44.29197 | 24.96863 | 34710 ft | 454 kts | 312° |
| 2026-02-18 04:12 | 44.33565 | 24.90531 | 34696 ft | 453 kts | 312° |
| 2026-02-18 04:13 | 44.37928 | 24.84193 | 34703 ft | 452 kts | 312° |
| 2026-02-18 04:13 | 44.42288 | 24.77844 | 34701 ft | 451 kts | 312° |
| 2026-02-18 04:14 | 44.46632 | 24.71504 | 34720 ft | 450 kts | 312° |
| 2026-02-18 04:15 | 44.53091 | 24.62049 | 34710 ft | 449 kts | 312° |
| 2026-02-18 04:15 | 44.57406 | 24.55717 | 34712 ft | 448 kts | 312° |
| 2026-02-18 04:16 | 44.63868 | 24.46204 | 34725 ft | 447 kts | 311° |
| 2026-02-18 04:16 | 44.68130 | 24.39911 | 34723 ft | 447 kts | 311° |
| 2026-02-18 04:17 | 44.72423 | 24.33558 | 34731 ft | 447 kts | 311° |
| 2026-02-18 04:17 | 44.76700 | 24.27215 | 34728 ft | 447 kts | 311° |
| 2026-02-18 04:18 | 44.80974 | 24.20861 | 34732 ft | 447 kts | 311° |
| 2026-02-18 04:19 | 44.87376 | 24.11317 | 34731 ft | 448 kts | 311° |
| 2026-02-18 04:19 | 44.91654 | 24.04921 | 34731 ft | 448 kts | 311° |
| 2026-02-18 04:20 | 44.95729 | 23.98814 | 34733 ft | 449 kts | 311° |
| 2026-02-18 04:20 | 45.00009 | 23.92385 | 34737 ft | 448 kts | 311° |
| 2026-02-18 04:21 | 45.04171 | 23.86120 | 34737 ft | 447 kts | 311° |
| 2026-02-18 04:21 | 45.08434 | 23.79689 | 34744 ft | 447 kts | 311° |
| 2026-02-18 04:22 | 45.12673 | 23.73277 | 34741 ft | 446 kts | 311° |
| 2026-02-18 04:22 | 45.16905 | 23.66860 | 34768 ft | 446 kts | 310° |
| 2026-02-18 04:23 | 45.23186 | 23.57303 | 34760 ft | 432 kts | 309° |
| 2026-02-18 04:23 | 45.27287 | 23.51056 | 34768 ft | 433 kts | 309° |
| 2026-02-18 04:24 | 45.31404 | 23.44767 | 34777 ft | 435 kts | 309° |
| 2026-02-18 04:24 | 45.35480 | 23.38525 | 34788 ft | 436 kts | 309° |
| 2026-02-18 04:25 | 45.39617 | 23.32169 | 34809 ft | 438 kts | 309° |
| 2026-02-18 04:25 | 45.43760 | 23.25793 | 34825 ft | 441 kts | 309° |
| 2026-02-18 04:26 | 45.47949 | 23.19333 | 34837 ft | 443 kts | 309° |
| 2026-02-18 04:27 | 45.54202 | 23.09660 | 34845 ft | 446 kts | 310° |
| 2026-02-18 04:27 | 45.58417 | 23.03121 | 34853 ft | 447 kts | 310° |
| 2026-02-18 04:28 | 45.62356 | 22.96995 | 34844 ft | 447 kts | 310° |
| 2026-02-18 04:28 | 45.66562 | 22.90440 | 34877 ft | 446 kts | 310° |
| 2026-02-18 04:29 | 45.70727 | 22.83931 | 34862 ft | 446 kts | 310° |
| 2026-02-18 04:29 | 45.74905 | 22.77390 | 34875 ft | 444 kts | 310° |
| 2026-02-18 04:30 | 45.79055 | 22.70875 | 34893 ft | 444 kts | 310° |
| 2026-02-18 04:30 | 45.83214 | 22.64328 | 34893 ft | 443 kts | 310° |
| 2026-02-18 04:31 | 45.89423 | 22.54528 | 34883 ft | 442 kts | 310° |
| 2026-02-18 04:31 | 45.93546 | 22.48002 | 34903 ft | 441 kts | 310° |
| 2026-02-18 04:32 | 45.97639 | 22.41506 | 34905 ft | 441 kts | 310° |
| 2026-02-18 04:32 | 46.01724 | 22.35008 | 34910 ft | 441 kts | 309° |
| 2026-02-18 04:33 | 46.05846 | 22.28435 | 34911 ft | 440 kts | 310° |
| 2026-02-18 04:33 | 46.09943 | 22.21887 | 34911 ft | 440 kts | 310° |
| 2026-02-18 04:34 | 46.14027 | 22.15343 | 34914 ft | 440 kts | 310° |
| 2026-02-18 04:35 | 46.20137 | 22.05524 | 34919 ft | 439 kts | 310° |
| 2026-02-18 04:35 | 46.23970 | 21.99347 | 34912 ft | 439 kts | 310° |
| 2026-02-18 04:36 | 46.28053 | 21.92750 | 34903 ft | 439 kts | 310° |
| 2026-02-18 04:36 | 46.32111 | 21.86180 | 34913 ft | 439 kts | 309° |
| 2026-02-18 04:37 | 46.36175 | 21.79582 | 34910 ft | 438 kts | 309° |
| 2026-02-18 04:37 | 46.40238 | 21.72971 | 34913 ft | 438 kts | 310° |
| 2026-02-18 04:38 | 46.44251 | 21.66425 | 34902 ft | 438 kts | 309° |
| 2026-02-18 04:38 | 46.48297 | 21.59809 | 34907 ft | 437 kts | 309° |
| 2026-02-18 04:39 | 46.54341 | 21.49896 | 34901 ft | 437 kts | 309° |
| 2026-02-18 04:39 | 46.58365 | 21.43277 | 34908 ft | 436 kts | 310° |
| 2026-02-18 04:40 | 46.62356 | 21.36695 | 34914 ft | 435 kts | 309° |
| 2026-02-18 04:40 | 46.66367 | 21.30063 | 34901 ft | 435 kts | 309° |
| 2026-02-18 04:41 | 46.70295 | 21.23553 | 34901 ft | 435 kts | 309° |
| 2026-02-18 04:41 | 46.74245 | 21.16992 | 34909 ft | 435 kts | 309° |
| 2026-02-18 04:42 | 46.78201 | 21.10405 | 34897 ft | 434 kts | 309° |
| 2026-02-18 04:43 | 46.84271 | 21.00578 | 34896 ft | 434 kts | 311° |
| 2026-02-18 04:43 | 46.88219 | 20.94450 | 34890 ft | 434 kts | 311° |
| 2026-02-18 04:44 | 46.92317 | 20.88058 | 34891 ft | 433 kts | 311° |
| 2026-02-18 04:44 | 46.96412 | 20.81618 | 34892 ft | 431 kts | 311° |
| 2026-02-18 04:45 | 47.00447 | 20.75242 | 34884 ft | 429 kts | 311° |
| 2026-02-18 04:45 | 47.04489 | 20.68835 | 34887 ft | 428 kts | 311° |
| 2026-02-18 04:46 | 47.08525 | 20.62423 | 34890 ft | 428 kts | 311° |
| 2026-02-18 04:46 | 47.12557 | 20.56002 | 34902 ft | 427 kts | 311° |
| 2026-02-18 04:47 | 47.20591 | 20.43163 | 34908 ft | 427 kts | 311° |
| 2026-02-18 04:48 | 47.24593 | 20.36744 | 34924 ft | 427 kts | 311° |
| 2026-02-18 04:48 | 47.28605 | 20.30293 | 34911 ft | 429 kts | 311° |
| 2026-02-18 04:49 | 47.32630 | 20.23805 | 34909 ft | 429 kts | 311° |
| 2026-02-18 04:49 | 47.36659 | 20.17298 | 34896 ft | 428 kts | 311° |
| 2026-02-18 04:50 | 47.40656 | 20.10824 | 34891 ft | 428 kts | 311° |
| 2026-02-18 04:50 | 47.44650 | 20.04340 | 34891 ft | 427 kts | 311° |
| 2026-02-18 04:51 | 47.50409 | 19.94963 | 34893 ft | 426 kts | 311° |
| 2026-02-18 04:51 | 47.53740 | 19.89524 | 34884 ft | 425 kts | 311° |
| 2026-02-18 04:52 | 47.58338 | 19.81998 | 34895 ft | 424 kts | 310° |
| 2026-02-18 04:52 | 47.61623 | 19.76608 | 34894 ft | 424 kts | 310° |
| 2026-02-18 04:53 | 47.65573 | 19.70112 | 34889 ft | 424 kts | 310° |
| 2026-02-18 04:53 | 47.69536 | 19.63579 | 34900 ft | 424 kts | 310° |
| 2026-02-18 04:54 | 47.73472 | 19.57074 | 34897 ft | 423 kts | 310° |
| 2026-02-18 04:55 | 47.79355 | 19.47323 | 34899 ft | 423 kts | 310° |
| 2026-02-18 04:55 | 47.83282 | 19.40794 | 34909 ft | 423 kts | 310° |
| 2026-02-18 04:56 | 47.87206 | 19.34253 | 34903 ft | 423 kts | 310° |
| 2026-02-18 04:56 | 47.91124 | 19.27707 | 34919 ft | 424 kts | 310° |
| 2026-02-18 04:57 | 47.95051 | 19.21130 | 34909 ft | 424 kts | 310° |
| 2026-02-18 04:57 | 47.98978 | 19.14536 | 34914 ft | 424 kts | 310° |
| 2026-02-18 04:58 | 48.02857 | 19.08006 | 34918 ft | 424 kts | 310° |
| 2026-02-18 04:58 | 48.06741 | 19.01450 | 34931 ft | 423 kts | 310° |
| 2026-02-18 04:59 | 48.12312 | 18.92021 | 34913 ft | 422 kts | 310° |
| 2026-02-18 04:59 | 48.16178 | 18.85458 | 34915 ft | 421 kts | 310° |
| 2026-02-18 05:00 | 48.20034 | 18.78896 | 34941 ft | 420 kts | 310° |
| 2026-02-18 05:00 | 48.23886 | 18.72324 | 34924 ft | 421 kts | 310° |
| 2026-02-18 05:01 | 48.29668 | 18.62427 | 34921 ft | 420 kts | 310° |
| 2026-02-18 05:02 | 48.33523 | 18.55809 | 34929 ft | 420 kts | 310° |
| 2026-02-18 05:02 | 48.37360 | 18.49240 | 34920 ft | 419 kts | 311° |
| 2026-02-18 05:03 | 48.43340 | 18.39639 | 34911 ft | 419 kts | 313° |
| 2026-02-18 05:03 | 48.47310 | 18.33305 | 34920 ft | 417 kts | 312° |
| 2026-02-18 05:04 | 48.51281 | 18.26915 | 34941 ft | 416 kts | 312° |
| 2026-02-18 05:04 | 48.55242 | 18.20503 | 34934 ft | 417 kts | 312° |
| 2026-02-18 05:05 | 48.59197 | 18.14081 | 34931 ft | 417 kts | 312° |
| 2026-02-18 05:05 | 48.63119 | 18.07694 | 34931 ft | 417 kts | 312° |
| 2026-02-18 05:06 | 48.67076 | 18.01236 | 34933 ft | 415 kts | 312° |
| 2026-02-18 05:07 | 48.72673 | 17.92073 | 34937 ft | 413 kts | 312° |
| 2026-02-18 05:07 | 48.76563 | 17.85687 | 34931 ft | 412 kts | 312° |
| 2026-02-18 05:08 | 48.80450 | 17.79289 | 34917 ft | 412 kts | 312° |
| 2026-02-18 05:08 | 48.84328 | 17.72890 | 34935 ft | 412 kts | 312° |
| 2026-02-18 05:09 | 48.88188 | 17.66505 | 34916 ft | 412 kts | 312° |
| 2026-02-18 05:09 | 48.92025 | 17.60143 | 34913 ft | 412 kts | 312° |
| 2026-02-18 05:10 | 48.95901 | 17.53700 | 34929 ft | 412 kts | 312° |
| 2026-02-18 05:10 | 48.99775 | 17.47245 | 34911 ft | 411 kts | 312° |
| 2026-02-18 05:11 | 49.05508 | 17.37663 | 34924 ft | 411 kts | 312° |
| 2026-02-18 05:11 | 49.09352 | 17.31218 | 34920 ft | 411 kts | 312° |
| 2026-02-18 05:12 | 49.13201 | 17.24747 | 34925 ft | 412 kts | 311° |
| 2026-02-18 05:12 | 49.17070 | 17.18228 | 34920 ft | 414 kts | 311° |
| 2026-02-18 05:13 | 49.20938 | 17.11694 | 34916 ft | 414 kts | 311° |
| 2026-02-18 05:13 | 49.24760 | 17.05221 | 34919 ft | 413 kts | 312° |
| 2026-02-18 05:14 | 49.28375 | 16.99085 | 34913 ft | 411 kts | 311° |
| 2026-02-18 05:15 | 49.34092 | 16.89349 | 34916 ft | 409 kts | 311° |
| 2026-02-18 05:15 | 49.37868 | 16.82900 | 34909 ft | 408 kts | 311° |
| 2026-02-18 05:16 | 49.41652 | 16.76420 | 34912 ft | 408 kts | 311° |
| 2026-02-18 05:16 | 49.45447 | 16.69904 | 34924 ft | 407 kts | 311° |
| 2026-02-18 05:17 | 49.49199 | 16.63449 | 34908 ft | 407 kts | 311° |
| 2026-02-18 05:17 | 49.52947 | 16.56981 | 34907 ft | 405 kts | 311° |
| 2026-02-18 05:18 | 49.56679 | 16.50526 | 34905 ft | 405 kts | 311° |
| 2026-02-18 05:18 | 49.60426 | 16.44030 | 34909 ft | 404 kts | 311° |
| 2026-02-18 05:19 | 49.66003 | 16.34328 | 34898 ft | 402 kts | 311° |
| 2026-02-18 05:19 | 49.69726 | 16.27833 | 34902 ft | 401 kts | 311° |
| 2026-02-18 05:20 | 49.73392 | 16.21421 | 34904 ft | 400 kts | 311° |
| 2026-02-18 05:20 | 49.77080 | 16.14955 | 34907 ft | 402 kts | 311° |
| 2026-02-18 05:21 | 49.80779 | 16.08452 | 34908 ft | 403 kts | 311° |
| 2026-02-18 05:21 | 49.84472 | 16.01944 | 34903 ft | 403 kts | 311° |
| 2026-02-18 05:22 | 49.87938 | 15.95820 | 34893 ft | 402 kts | 311° |
| 2026-02-18 05:23 | 49.93336 | 15.86255 | 34905 ft | 401 kts | 311° |
| 2026-02-18 05:23 | 49.96973 | 15.79790 | 34912 ft | 400 kts | 311° |
| 2026-02-18 05:24 | 50.00627 | 15.73278 | 34913 ft | 400 kts | 311° |
| 2026-02-18 05:24 | 50.04284 | 15.66746 | 34904 ft | 399 kts | 311° |
| 2026-02-18 05:25 | 50.07914 | 15.60244 | 34905 ft | 397 kts | 311° |
| 2026-02-18 05:25 | 50.11529 | 15.53755 | 34906 ft | 395 kts | 311° |
| 2026-02-18 05:26 | 50.15112 | 15.47304 | 34904 ft | 395 kts | 311° |
| 2026-02-18 05:26 | 50.18707 | 15.40817 | 34903 ft | 395 kts | 311° |
| 2026-02-18 05:27 | 50.24084 | 15.31084 | 34886 ft | 394 kts | 310° |
| 2026-02-18 05:27 | 50.27643 | 15.24621 | 34905 ft | 392 kts | 310° |
| 2026-02-18 05:28 | 50.31154 | 15.18231 | 34909 ft | 390 kts | 310° |
| 2026-02-18 05:28 | 50.34668 | 15.11818 | 34917 ft | 390 kts | 310° |
| 2026-02-18 05:29 | 50.38213 | 15.05331 | 34915 ft | 392 kts | 310° |
| 2026-02-18 05:29 | 50.41508 | 14.99288 | 34907 ft | 393 kts | 310° |
| 2026-02-18 05:30 | 50.45063 | 14.92754 | 34904 ft | 392 kts | 310° |
| 2026-02-18 05:31 | 50.50839 | 14.83787 | 34905 ft | 392 kts | 322° |
| 2026-02-18 05:31 | 50.55324 | 14.78876 | 34908 ft | 392 kts | 322° |
| 2026-02-18 05:32 | 50.59787 | 14.73955 | 34906 ft | 392 kts | 322° |
| 2026-02-18 05:32 | 50.64242 | 14.69004 | 34902 ft | 392 kts | 322° |
| 2026-02-18 05:33 | 50.68717 | 14.64006 | 34918 ft | 395 kts | 322° |
| 2026-02-18 05:33 | 50.73139 | 14.59056 | 34898 ft | 394 kts | 322° |
| 2026-02-18 05:34 | 50.77597 | 14.54054 | 34899 ft | 392 kts | 322° |
| 2026-02-18 05:34 | 50.82046 | 14.49049 | 34898 ft | 392 kts | 322° |
| 2026-02-18 05:35 | 50.88703 | 14.41538 | 34902 ft | 391 kts | 322° |
| 2026-02-18 05:35 | 50.93122 | 14.36488 | 34920 ft | 391 kts | 320° |
| 2026-02-18 05:36 | 50.97271 | 14.30908 | 34919 ft | 393 kts | 317° |
| 2026-02-18 05:36 | 51.01287 | 14.25321 | 34896 ft | 393 kts | 317° |
| 2026-02-18 05:37 | 51.04707 | 14.20574 | 34891 ft | 392 kts | 317° |
| 2026-02-18 05:37 | 51.08729 | 14.15009 | 34902 ft | 391 kts | 317° |
| 2026-02-18 05:38 | 51.13439 | 14.08491 | 34901 ft | 391 kts | 317° |
| 2026-02-18 05:39 | 51.18781 | 14.01080 | 34891 ft | 391 kts | 317° |
| 2026-02-18 05:39 | 51.22459 | 13.95962 | 34899 ft | 392 kts | 317° |
| 2026-02-18 05:40 | 51.26439 | 13.90413 | 34885 ft | 393 kts | 317° |
| 2026-02-18 05:40 | 51.30530 | 13.84696 | 34886 ft | 394 kts | 317° |
| 2026-02-18 05:41 | 51.34533 | 13.79087 | 34896 ft | 394 kts | 317° |
| 2026-02-18 05:41 | 51.38602 | 13.73372 | 34906 ft | 394 kts | 317° |
| 2026-02-18 05:42 | 51.42719 | 13.67575 | 34895 ft | 394 kts | 317° |
| 2026-02-18 05:42 | 51.46845 | 13.61753 | 34895 ft | 394 kts | 317° |
| 2026-02-18 05:43 | 51.52977 | 13.53073 | 34907 ft | 394 kts | 317° |
| 2026-02-18 05:43 | 51.57092 | 13.47230 | 34904 ft | 395 kts | 317° |
| 2026-02-18 05:44 | 51.61182 | 13.41408 | 34907 ft | 395 kts | 317° |
| 2026-02-18 05:44 | 51.65258 | 13.35594 | 34906 ft | 395 kts | 316° |
| 2026-02-18 05:45 | 51.69350 | 13.29732 | 34912 ft | 395 kts | 316° |
| 2026-02-18 05:45 | 51.73419 | 13.23876 | 34913 ft | 394 kts | 316° |
| 2026-02-18 05:46 | 51.77507 | 13.17984 | 34898 ft | 393 kts | 316° |
| 2026-02-18 05:47 | 51.83610 | 13.09154 | 34907 ft | 394 kts | 316° |
| 2026-02-18 05:47 | 51.87702 | 13.03213 | 34902 ft | 394 kts | 316° |
| 2026-02-18 05:48 | 51.91578 | 12.97575 | 34902 ft | 394 kts | 316° |
| 2026-02-18 05:48 | 51.95644 | 12.91652 | 34904 ft | 394 kts | 316° |
| 2026-02-18 05:49 | 51.99729 | 12.85693 | 34904 ft | 394 kts | 316° |
| 2026-02-18 05:49 | 52.03751 | 12.79808 | 34894 ft | 393 kts | 316° |
| 2026-02-18 05:50 | 52.07806 | 12.73861 | 34946 ft | 392 kts | 316° |
| 2026-02-18 05:50 | 52.11856 | 12.67905 | 34912 ft | 395 kts | 316° |
| 2026-02-18 05:51 | 52.17966 | 12.58884 | 34908 ft | 396 kts | 316° |
| 2026-02-18 05:51 | 52.22024 | 12.52871 | 34909 ft | 396 kts | 316° |
| 2026-02-18 05:52 | 52.26104 | 12.46809 | 34914 ft | 397 kts | 316° |
| 2026-02-18 05:52 | 52.30166 | 12.40760 | 34903 ft | 395 kts | 315° |
| 2026-02-18 05:53 | 52.34192 | 12.34747 | 34920 ft | 394 kts | 315° |
| 2026-02-18 05:53 | 52.38225 | 12.28708 | 34940 ft | 394 kts | 315° |
| 2026-02-18 05:54 | 52.42279 | 12.22622 | 34930 ft | 396 kts | 315° |
| 2026-02-18 05:55 | 52.48340 | 12.13493 | 34929 ft | 396 kts | 315° |
| 2026-02-18 05:55 | 52.52431 | 12.07311 | 34928 ft | 396 kts | 315° |
| 2026-02-18 05:56 | 52.56454 | 12.01216 | 34930 ft | 395 kts | 315° |
| 2026-02-18 05:56 | 52.60249 | 11.95454 | 34937 ft | 394 kts | 315° |
| 2026-02-18 05:57 | 52.64193 | 11.89566 | 34929 ft | 395 kts | 319° |
| 2026-02-18 05:57 | 52.68552 | 11.84048 | 34949 ft | 397 kts | 320° |
| 2026-02-18 05:58 | 52.72976 | 11.78535 | 34941 ft | 398 kts | 320° |
| 2026-02-18 05:58 | 52.77380 | 11.72992 | 34946 ft | 399 kts | 320° |
| 2026-02-18 05:59 | 52.83934 | 11.64676 | 34770 ft | 394 kts | 320° |
| 2026-02-18 05:59 | 52.86082 | 11.61946 | 34084 ft | 384 kts | 319° |
| 2026-02-18 05:59 | 52.88165 | 11.59293 | 33449 ft | 376 kts | 319° |
| 2026-02-18 06:00 | 52.90246 | 11.56638 | 32796 ft | 373 kts | 319° |
| 2026-02-18 06:00 | 52.92281 | 11.54037 | 32135 ft | 371 kts | 319° |
| 2026-02-18 06:00 | 52.94322 | 11.51425 | 31625 ft | 364 kts | 319° |
| 2026-02-18 06:00 | 52.96241 | 11.48962 | 31399 ft | 359 kts | 319° |
| 2026-02-18 06:01 | 52.98241 | 11.46380 | 30715 ft | 380 kts | 319° |
| 2026-02-18 06:01 | 53.00294 | 11.43733 | 29997 ft | 378 kts | 320° |
| 2026-02-18 06:01 | 53.02372 | 11.41055 | 29145 ft | 374 kts | 320° |
| 2026-02-18 06:01 | 53.04417 | 11.38417 | 28341 ft | 370 kts | 320° |
| 2026-02-18 06:02 | 53.06452 | 11.35788 | 27535 ft | 366 kts | 320° |
| 2026-02-18 06:02 | 53.08429 | 11.33231 | 26731 ft | 365 kts | 320° |
| 2026-02-18 06:02 | 53.10416 | 11.30658 | 25904 ft | 362 kts | 320° |
| 2026-02-18 06:03 | 53.14462 | 11.25650 | 24606 ft | 373 kts | 323° |
| 2026-02-18 06:03 | 53.16581 | 11.23215 | 23981 ft | 380 kts | 323° |
| 2026-02-18 06:03 | 53.18741 | 11.20758 | 23331 ft | 371 kts | 324° |
| 2026-02-18 06:03 | 53.20833 | 11.18374 | 22678 ft | 361 kts | 324° |
| 2026-02-18 06:04 | 53.22876 | 11.16032 | 22090 ft | 354 kts | 324° |
| 2026-02-18 06:04 | 53.24896 | 11.13704 | 21446 ft | 350 kts | 324° |
| 2026-02-18 06:04 | 53.26866 | 11.11424 | 20888 ft | 346 kts | 324° |
| 2026-02-18 06:04 | 53.28824 | 11.09151 | 20321 ft | 355 kts | 324° |
| 2026-02-18 06:05 | 53.30906 | 11.06727 | 19704 ft | 377 kts | 324° |
| 2026-02-18 06:05 | 53.33072 | 11.04204 | 19050 ft | 374 kts | 324° |
| 2026-02-18 06:05 | 53.35191 | 11.01735 | 18430 ft | 367 kts | 324° |
| 2026-02-18 06:05 | 53.37032 | 10.99589 | 17830 ft | 362 kts | 324° |
| 2026-02-18 06:06 | 53.39050 | 10.97232 | 17216 ft | 356 kts | 324° |
| 2026-02-18 06:06 | 53.41073 | 10.94867 | 16618 ft | 352 kts | 324° |
| 2026-02-18 06:06 | 53.42999 | 10.92613 | 16034 ft | 348 kts | 324° |
| 2026-02-18 06:07 | 53.47050 | 10.87866 | 14670 ft | 365 kts | 325° |
| 2026-02-18 06:07 | 53.49086 | 10.85483 | 14057 ft | 359 kts | 325° |
| 2026-02-18 06:07 | 53.51107 | 10.83116 | 13468 ft | 352 kts | 325° |
| 2026-02-18 06:07 | 53.53070 | 10.80813 | 12894 ft | 345 kts | 325° |
| 2026-02-18 06:08 | 53.54950 | 10.78606 | 12373 ft | 339 kts | 325° |
| 2026-02-18 06:08 | 53.56901 | 10.76312 | 11792 ft | 337 kts | 325° |
| 2026-02-18 06:08 | 53.58757 | 10.74126 | 11303 ft | 334 kts | 325° |
| 2026-02-18 06:08 | 53.60644 | 10.71880 | 11211 ft | 325 kts | 322° |
| 2026-02-18 06:09 | 53.62095 | 10.69186 | 11038 ft | 329 kts | 302° |
| 2026-02-18 06:09 | 53.62868 | 10.65735 | 10912 ft | 321 kts | 284° |
| 2026-02-18 06:09 | 53.63015 | 10.62123 | 10752 ft | 314 kts | 268° |
| 2026-02-18 06:09 | 53.62543 | 10.58519 | 10591 ft | 307 kts | 257° |
| 2026-02-18 06:10 | 53.61952 | 10.55390 | 10464 ft | 298 kts | 256° |
| 2026-02-18 06:10 | 53.61287 | 10.52032 | 10298 ft | 289 kts | 255° |
| 2026-02-18 06:10 | 53.60711 | 10.49135 | 10172 ft | 282 kts | 256° |
| 2026-02-18 06:11 | 53.59514 | 10.43035 | 9899 ft | 268 kts | 256° |
| 2026-02-18 06:11 | 53.58941 | 10.40087 | 9747 ft | 264 kts | 256° |
| 2026-02-18 06:11 | 53.58372 | 10.37141 | 9621 ft | 264 kts | 257° |
| 2026-02-18 06:11 | 53.57812 | 10.34235 | 9494 ft | 267 kts | 257° |
| 2026-02-18 06:12 | 53.57247 | 10.31301 | 9233 ft | 274 kts | 257° |
| 2026-02-18 06:12 | 53.56649 | 10.28194 | 8809 ft | 275 kts | 256° |
| 2026-02-18 06:12 | 53.56065 | 10.25186 | 8387 ft | 270 kts | 256° |
| 2026-02-18 06:12 | 53.55503 | 10.22290 | 7998 ft | 265 kts | 256° |
| 2026-02-18 06:13 | 53.54949 | 10.19434 | 7611 ft | 261 kts | 256° |
| 2026-02-18 06:13 | 53.54411 | 10.16664 | 7234 ft | 258 kts | 256° |
| 2026-02-18 06:13 | 53.53860 | 10.13829 | 6965 ft | 252 kts | 256° |
| 2026-02-18 06:13 | 53.53323 | 10.11064 | 6717 ft | 255 kts | 256° |
| 2026-02-18 06:14 | 53.52775 | 10.08238 | 6481 ft | 261 kts | 256° |
| 2026-02-18 06:14 | 53.52217 | 10.05366 | 6214 ft | 262 kts | 256° |
| 2026-02-18 06:14 | 53.51658 | 10.02511 | 5947 ft | 260 kts | 256° |
| 2026-02-18 06:15 | 53.50599 | 9.97113 | 5453 ft | 258 kts | 255° |
| 2026-02-18 06:15 | 53.49995 | 9.94346 | 5192 ft | 259 kts | 245° |
| 2026-02-18 06:15 | 53.48918 | 9.91979 | 4936 ft | 255 kts | 231° |
| 2026-02-18 06:15 | 53.47788 | 9.89815 | 4663 ft | 247 kts | 232° |
| 2026-02-18 06:16 | 53.46714 | 9.87700 | 4557 ft | 228 kts | 233° |
| 2026-02-18 06:16 | 53.45728 | 9.85742 | 4424 ft | 215 kts | 233° |
| 2026-02-18 06:16 | 53.44804 | 9.83899 | 4332 ft | 202 kts | 233° |
| 2026-02-18 06:16 | 53.44219 | 9.82729 | 4277 ft | 195 kts | 233° |
| 2026-02-18 06:17 | 53.43401 | 9.81091 | 4098 ft | 188 kts | 234° |
| 2026-02-18 06:17 | 53.42315 | 9.78916 | 4006 ft | 186 kts | 234° |
| 2026-02-18 06:17 | 53.41481 | 9.77244 | 4000 ft | 186 kts | 234° |
| 2026-02-18 06:17 | 53.40663 | 9.75604 | 4005 ft | 185 kts | 234° |
| 2026-02-18 06:18 | 53.39837 | 9.73952 | 3998 ft | 186 kts | 233° |
| 2026-02-18 06:18 | 53.39008 | 9.72295 | 3994 ft | 187 kts | 233° |
| 2026-02-18 06:18 | 53.38190 | 9.70661 | 4005 ft | 187 kts | 233° |
| 2026-02-18 06:19 | 53.36513 | 9.67313 | 3993 ft | 187 kts | 233° |
| 2026-02-18 06:19 | 53.35688 | 9.65668 | 3986 ft | 187 kts | 233° |
| 2026-02-18 06:19 | 53.34856 | 9.64011 | 3992 ft | 186 kts | 234° |
| 2026-02-18 06:19 | 53.34025 | 9.62358 | 3992 ft | 185 kts | 234° |
| 2026-02-18 06:20 | 53.33202 | 9.60722 | 3981 ft | 184 kts | 234° |
| 2026-02-18 06:20 | 53.32397 | 9.59121 | 3997 ft | 182 kts | 234° |
| 2026-02-18 06:20 | 53.31585 | 9.57508 | 3983 ft | 182 kts | 234° |
| 2026-02-18 06:20 | 53.30773 | 9.55897 | 4001 ft | 181 kts | 234° |
| 2026-02-18 06:21 | 53.29967 | 9.54298 | 3999 ft | 181 kts | 234° |
| 2026-02-18 06:21 | 53.29419 | 9.52523 | 3977 ft | 172 kts | 270° |
| 2026-02-18 06:21 | 53.29704 | 9.50752 | 4011 ft | 161 kts | 307° |
| 2026-02-18 06:21 | 53.30477 | 9.49463 | 4012 ft | 161 kts | 322° |
| 2026-02-18 06:22 | 53.31333 | 9.48246 | 4003 ft | 163 kts | 322° |
| 2026-02-18 06:22 | 53.32206 | 9.47005 | 4006 ft | 165 kts | 322° |
| 2026-02-18 06:22 | 53.33086 | 9.45759 | 4001 ft | 166 kts | 322° |
| 2026-02-18 06:23 | 53.35041 | 9.44006 | 4000 ft | 164 kts | 8° |
| 2026-02-18 06:23 | 53.36028 | 9.44813 | 4000 ft | 169 kts | 40° |
| 2026-02-18 06:23 | 53.36800 | 9.46333 | 4008 ft | 169 kts | 46° |
| 2026-02-18 06:23 | 53.37555 | 9.47810 | 4010 ft | 169 kts | 46° |
| 2026-02-18 06:24 | 53.38069 | 9.48818 | 3997 ft | 169 kts | 46° |
| 2026-02-18 06:24 | 53.39097 | 9.50769 | 3986 ft | 167 kts | 41° |
| 2026-02-18 06:24 | 53.39918 | 9.52127 | 3991 ft | 167 kts | 42° |
| 2026-02-18 06:24 | 53.40711 | 9.53548 | 3990 ft | 166 kts | 44° |
| 2026-02-18 06:25 | 53.41478 | 9.55005 | 3993 ft | 166 kts | 45° |
| 2026-02-18 06:25 | 53.42224 | 9.56473 | 3997 ft | 166 kts | 46° |
| 2026-02-18 06:25 | 53.42711 | 9.57446 | 3990 ft | 166 kts | 46° |
| 2026-02-18 06:25 | 53.43442 | 9.58921 | 4002 ft | 166 kts | 46° |
| 2026-02-18 06:26 | 53.44420 | 9.60909 | 3936 ft | 168 kts | 47° |
| 2026-02-18 06:26 | 53.44908 | 9.61904 | 3873 ft | 161 kts | 47° |
| 2026-02-18 06:26 | 53.45817 | 9.63764 | 3766 ft | 150 kts | 47° |
| 2026-02-18 06:27 | 53.46869 | 9.65950 | 3739 ft | 143 kts | 46° |
| 2026-02-18 06:27 | 53.47491 | 9.67204 | 3744 ft | 144 kts | 46° |
| 2026-02-18 06:27 | 53.48126 | 9.68488 | 3747 ft | 144 kts | 46° |
| 2026-02-18 06:27 | 53.48763 | 9.69782 | 3739 ft | 144 kts | 46° |
| 2026-02-18 06:28 | 53.49401 | 9.71081 | 3742 ft | 143 kts | 46° |
| 2026-02-18 06:28 | 53.50015 | 9.72334 | 3769 ft | 139 kts | 46° |
| 2026-02-18 06:28 | 53.50632 | 9.73592 | 3760 ft | 140 kts | 46° |
| 2026-02-18 06:28 | 53.51251 | 9.74853 | 3582 ft | 139 kts | 46° |
| 2026-02-18 06:29 | 53.51859 | 9.76092 | 3395 ft | 137 kts | 47° |
| 2026-02-18 06:29 | 53.52458 | 9.77313 | 3195 ft | 136 kts | 47° |
| 2026-02-18 06:29 | 53.53062 | 9.78544 | 3009 ft | 135 kts | 47° |
| 2026-02-18 06:29 | 53.53657 | 9.79756 | 2817 ft | 134 kts | 47° |
| 2026-02-18 06:30 | 53.54244 | 9.80953 | 2628 ft | 133 kts | 47° |
| 2026-02-18 06:30 | 53.54834 | 9.82154 | 2434 ft | 133 kts | 47° |
| 2026-02-18 06:30 | 53.55429 | 9.83365 | 2232 ft | 132 kts | 47° |
| 2026-02-18 06:31 | 53.56587 | 9.85723 | 1865 ft | 131 kts | 48° |
| 2026-02-18 06:31 | 53.57166 | 9.86901 | 1676 ft | 131 kts | 48° |
| 2026-02-18 06:31 | 53.57744 | 9.88076 | 1489 ft | 132 kts | 47° |
| 2026-02-18 06:31 | 53.58335 | 9.89276 | 1295 ft | 133 kts | 48° |
| 2026-02-18 06:32 | 53.58928 | 9.90484 | 1093 ft | 135 kts | 48° |
| 2026-02-18 06:32 | 53.59532 | 9.91708 | 875 ft | 139 kts | 48° |
| 2026-02-18 06:32 | 53.60137 | 9.92935 | 671 ft | 138 kts | 47° |
| 2026-02-18 06:32 | 53.60743 | 9.94183 | 479 ft | 139 kts | 47° |
| 2026-02-18 06:33 | 53.61367 | 9.95417 | 290 ft | 139 kts | 44° |
| 2026-02-18 06:33 | 53.61974 | 9.96660 | 117 ft | 138 kts | 44° |
| 2026-02-18 06:33 | 53.62545 | 9.97822 | 48 ft | 128 kts | 44° |
| 2026-02-18 06:33 | 53.62980 | 9.98716 | 48 ft | 78 kts | 52° |
| 2026-02-18 06:34 | 53.63193 | 9.99132 | 51 ft | 16 kts | 50° |
| 2026-02-18 06:34 | 53.63217 | 9.99180 | 51 ft | 9 kts | 50° |
| 2026-02-18 06:34 | 53.63255 | 9.99268 | 50 ft | 9 kts | 56° |
| 2026-02-18 06:35 | 53.63293 | 9.99484 | 49 ft | 11 kts | 91° |
| 2026-02-18 06:35 | 53.63285 | 9.99577 | 49 ft | 0 kts | 96° |
| 2026-02-18 06:35 | 53.63285 | 9.99578 | 49 ft | 2 kts | 96° |
| 2026-02-18 06:35 | 53.63271 | 9.99702 | 49 ft | 11 kts | 111° |
| 2026-02-18 06:36 | 53.63211 | 9.99774 | 47 ft | 11 kts | 138° |
| 2026-02-18 06:36 | 53.63145 | 9.99832 | 48 ft | 11 kts | 154° |
| 2026-02-18 06:36 | 53.63080 | 9.99886 | 47 ft | 10 kts | 153° |
| 2026-02-18 06:36 | 53.63017 | 9.99940 | 49 ft | 10 kts | 151° |
| 2026-02-18 06:37 | 53.62970 | 9.99981 | 49 ft | 7 kts | 146° |
| 2026-02-18 06:37 | 53.62949 | 10.00056 | 48 ft | 7 kts | 87° |
| 2026-02-18 06:37 | 53.62976 | 10.00121 | 50 ft | 7 kts | 36° |
| 2026-02-18 06:37 | 53.63017 | 10.00168 | 50 ft | 7 kts | 29° |
| 2026-02-18 06:38 | 53.63058 | 10.00208 | 46 ft | 7 kts | 30° |
| 2026-02-18 06:38 | 53.63086 | 10.00268 | 50 ft | 7 kts | 87° |
| 2026-02-18 06:38 | 53.63078 | 10.00346 | 50 ft | 4 kts | 100° |
| 2026-02-18 06:39 | 53.63077 | 10.00356 | 50 ft | 1 kts | 100° |
| 2026-02-18 06:39 | 53.63076 | 10.00366 | 50 ft | 1 kts | 99° |
| 2026-02-18 06:39 | 53.63075 | 10.00370 | 50 ft | 0 kts | 99° |